UAL154 PHNL-PKMJ
Flight info
| Callsign | UAL154 |
|---|---|
| Flight time | N/A |
| Altitude | 30000 |
| Route | OPIHI3 CHOKO R584 MANRE/N0471F320 R584 MAZZA 10N177E EFAHU |
| Aircraft | B738/M-SDE2E3FGHIRWXY/LB1 |
Departure
| Time | 2026-05-05 09:18 |
|---|---|
| Airport | Daniel K. Inouye International Airport (PHNL) |
Arrival
| Time | N/A |
|---|---|
| Airport | Marshall Islands International Airport (PKMJ) |
| Time | Latitude | Longitude | Altitude | Speed | Heading |
|---|---|---|---|---|---|
| 2026-05-05 08:41 | 21.33129 | -157.92123 | 23 ft | 0 kts | 8° |
| 2026-05-05 09:05 | 21.33110 | -157.92126 | 26 ft | 3 kts | 8° |
| 2026-05-05 09:06 | 21.33093 | -157.92129 | 27 ft | 3 kts | 8° |
| 2026-05-05 09:06 | 21.33073 | -157.92132 | 26 ft | 3 kts | 8° |
| 2026-05-05 09:06 | 21.33053 | -157.92136 | 27 ft | 3 kts | 9° |
| 2026-05-05 09:06 | 21.33033 | -157.92139 | 26 ft | 3 kts | 9° |
| 2026-05-05 09:07 | 21.33016 | -157.92142 | 28 ft | 3 kts | 9° |
| 2026-05-05 09:07 | 21.32996 | -157.92146 | 26 ft | 3 kts | 9° |
| 2026-05-05 09:07 | 21.32976 | -157.92149 | 26 ft | 3 kts | 9° |
| 2026-05-05 09:07 | 21.32956 | -157.92153 | 23 ft | 3 kts | 9° |
| 2026-05-05 09:08 | 21.32936 | -157.92156 | 26 ft | 3 kts | 9° |
| 2026-05-05 09:08 | 21.32916 | -157.92160 | 28 ft | 3 kts | 9° |
| 2026-05-05 09:08 | 21.32896 | -157.92163 | 26 ft | 3 kts | 9° |
| 2026-05-05 09:08 | 21.32876 | -157.92166 | 27 ft | 3 kts | 9° |
| 2026-05-05 09:09 | 21.32856 | -157.92170 | 26 ft | 3 kts | 8° |
| 2026-05-05 09:09 | 21.32836 | -157.92172 | 26 ft | 3 kts | 0° |
| 2026-05-05 09:09 | 21.32816 | -157.92171 | 25 ft | 3 kts | 349° |
| 2026-05-05 09:09 | 21.32797 | -157.92166 | 27 ft | 3 kts | 334° |
| 2026-05-05 09:10 | 21.32780 | -157.92154 | 26 ft | 3 kts | 308° |
| 2026-05-05 09:10 | 21.32773 | -157.92138 | 27 ft | 2 kts | 270° |
| 2026-05-05 09:10 | 21.32773 | -157.92116 | 25 ft | 3 kts | 270° |
| 2026-05-05 09:10 | 21.32773 | -157.92107 | 26 ft | 0 kts | 270° |
| 2026-05-05 09:12 | 21.32773 | -157.92122 | 26 ft | 5 kts | 272° |
| 2026-05-05 09:13 | 21.32774 | -157.92181 | 23 ft | 11 kts | 270° |
| 2026-05-05 09:13 | 21.32775 | -157.92286 | 23 ft | 17 kts | 270° |
| 2026-05-05 09:13 | 21.32774 | -157.92433 | 23 ft | 23 kts | 270° |
| 2026-05-05 09:13 | 21.32775 | -157.92619 | 23 ft | 26 kts | 270° |
| 2026-05-05 09:14 | 21.32747 | -157.92803 | 25 ft | 24 kts | 258° |
| 2026-05-05 09:14 | 21.32743 | -157.92979 | 23 ft | 23 kts | 270° |
| 2026-05-05 09:14 | 21.32743 | -157.93145 | 23 ft | 22 kts | 270° |
| 2026-05-05 09:14 | 21.32742 | -157.93315 | 23 ft | 22 kts | 270° |
| 2026-05-05 09:15 | 21.32742 | -157.93480 | 23 ft | 22 kts | 269° |
| 2026-05-05 09:15 | 21.32742 | -157.93640 | 23 ft | 21 kts | 270° |
| 2026-05-05 09:15 | 21.32742 | -157.93799 | 24 ft | 21 kts | 270° |
| 2026-05-05 09:15 | 21.32742 | -157.93958 | 24 ft | 21 kts | 270° |
| 2026-05-05 09:16 | 21.32740 | -157.94111 | 24 ft | 21 kts | 271° |
| 2026-05-05 09:16 | 21.32742 | -157.94266 | 24 ft | 21 kts | 271° |
| 2026-05-05 09:16 | 21.32645 | -157.94327 | 24 ft | 18 kts | 179° |
| 2026-05-05 09:16 | 21.32530 | -157.94321 | 24 ft | 8 kts | 155° |
| 2026-05-05 09:17 | 21.32523 | -157.94299 | 25 ft | 3 kts | 88° |
| 2026-05-05 09:17 | 21.32526 | -157.94049 | 25 ft | 67 kts | 90° |
| 2026-05-05 09:17 | 21.32527 | -157.93321 | 24 ft | 126 kts | 90° |
| 2026-05-05 09:17 | 21.32532 | -157.92202 | 39 ft | 173 kts | 88° |
| 2026-05-05 09:18 | 21.32522 | -157.90836 | 433 ft | 194 kts | 91° |
| 2026-05-05 09:18 | 21.32512 | -157.89307 | 872 ft | 207 kts | 90° |
| 2026-05-05 09:18 | 21.32442 | -157.87808 | 1622 ft | 200 kts | 97° |
| 2026-05-05 09:18 | 21.31787 | -157.86405 | 1855 ft | 227 kts | 130° |
| 2026-05-05 09:19 | 21.30387 | -157.85557 | 2371 ft | 237 kts | 162° |
| 2026-05-05 09:19 | 21.28746 | -157.85255 | 2768 ft | 252 kts | 168° |
| 2026-05-05 09:19 | 21.26930 | -157.85310 | 3216 ft | 269 kts | 186° |
| 2026-05-05 09:19 | 21.25094 | -157.85703 | 4030 ft | 267 kts | 189° |
| 2026-05-05 09:20 | 21.23264 | -157.86108 | 4760 ft | 270 kts | 189° |
| 2026-05-05 09:20 | 21.21419 | -157.86488 | 5523 ft | 270 kts | 189° |
| 2026-05-05 09:20 | 21.19572 | -157.86848 | 6296 ft | 270 kts | 189° |
| 2026-05-05 09:20 | 21.17714 | -157.87202 | 6956 ft | 273 kts | 189° |
| 2026-05-05 09:21 | 21.15827 | -157.87557 | 7555 ft | 278 kts | 189° |
| 2026-05-05 09:21 | 21.13991 | -157.88219 | 8130 ft | 284 kts | 213° |
| 2026-05-05 09:21 | 21.12627 | -157.89736 | 8754 ft | 287 kts | 239° |
| 2026-05-05 09:21 | 21.11902 | -157.91736 | 9387 ft | 290 kts | 253° |
| 2026-05-05 09:22 | 21.11349 | -157.93831 | 10014 ft | 294 kts | 255° |
| 2026-05-05 09:22 | 21.10783 | -157.95980 | 10349 ft | 309 kts | 254° |
| 2026-05-05 09:22 | 21.10166 | -157.98266 | 10504 ft | 329 kts | 254° |
| 2026-05-05 09:22 | 21.09504 | -158.00681 | 10638 ft | 347 kts | 253° |
| 2026-05-05 09:23 | 21.08694 | -158.03186 | 10766 ft | 365 kts | 249° |
| 2026-05-05 09:23 | 21.07778 | -158.05741 | 10969 ft | 377 kts | 249° |
| 2026-05-05 09:23 | 21.06840 | -158.08370 | 11417 ft | 381 kts | 250° |
| 2026-05-05 09:23 | 21.05906 | -158.11030 | 12065 ft | 379 kts | 250° |
| 2026-05-05 09:24 | 21.05125 | -158.13730 | 12562 ft | 381 kts | 257° |
| 2026-05-05 09:24 | 21.04594 | -158.16522 | 13115 ft | 381 kts | 260° |
| 2026-05-05 09:24 | 21.04155 | -158.19316 | 13642 ft | 383 kts | 261° |
| 2026-05-05 09:24 | 21.03727 | -158.22136 | 14106 ft | 384 kts | 261° |
| 2026-05-05 09:25 | 21.03281 | -158.24977 | 14503 ft | 387 kts | 260° |
| 2026-05-05 09:25 | 21.02816 | -158.27817 | 14940 ft | 389 kts | 260° |
| 2026-05-05 09:25 | 21.02330 | -158.30682 | 15306 ft | 393 kts | 259° |
| 2026-05-05 09:25 | 21.01828 | -158.33563 | 15703 ft | 395 kts | 259° |
| 2026-05-05 09:26 | 21.01316 | -158.36459 | 16096 ft | 397 kts | 259° |
| 2026-05-05 09:26 | 21.00795 | -158.39373 | 16493 ft | 399 kts | 259° |
| 2026-05-05 09:26 | 21.00270 | -158.42299 | 16882 ft | 402 kts | 259° |
| 2026-05-05 09:26 | 20.99748 | -158.45201 | 17227 ft | 405 kts | 259° |
| 2026-05-05 09:27 | 20.99213 | -158.48170 | 17627 ft | 406 kts | 259° |
| 2026-05-05 09:27 | 20.98675 | -158.51155 | 17971 ft | 409 kts | 259° |
| 2026-05-05 09:27 | 20.98134 | -158.54148 | 18354 ft | 411 kts | 259° |
| 2026-05-05 09:27 | 20.97590 | -158.57162 | 18679 ft | 413 kts | 259° |
| 2026-05-05 09:28 | 20.97043 | -158.60187 | 18991 ft | 415 kts | 259° |
| 2026-05-05 09:28 | 20.96494 | -158.63219 | 19318 ft | 416 kts | 259° |
| 2026-05-05 09:28 | 20.95939 | -158.66281 | 19599 ft | 419 kts | 259° |
| 2026-05-05 09:28 | 20.95381 | -158.69359 | 19899 ft | 421 kts | 258° |
| 2026-05-05 09:29 | 20.94822 | -158.72439 | 20215 ft | 423 kts | 258° |
| 2026-05-05 09:29 | 20.94260 | -158.75530 | 20514 ft | 424 kts | 258° |
| 2026-05-05 09:29 | 20.93694 | -158.78641 | 20792 ft | 427 kts | 258° |
| 2026-05-05 09:29 | 20.93126 | -158.81759 | 21081 ft | 428 kts | 258° |
| 2026-05-05 09:30 | 20.92555 | -158.84893 | 21379 ft | 430 kts | 258° |
| 2026-05-05 09:30 | 20.91980 | -158.88045 | 21654 ft | 432 kts | 258° |
| 2026-05-05 09:30 | 20.91401 | -158.91210 | 21926 ft | 434 kts | 258° |
| 2026-05-05 09:30 | 20.90821 | -158.94384 | 22189 ft | 436 kts | 258° |
| 2026-05-05 09:31 | 20.90238 | -158.97569 | 22451 ft | 438 kts | 258° |
| 2026-05-05 09:31 | 20.89656 | -159.00739 | 22714 ft | 440 kts | 258° |
| 2026-05-05 09:31 | 20.89066 | -159.03955 | 22981 ft | 441 kts | 258° |
| 2026-05-05 09:31 | 20.88473 | -159.07186 | 23216 ft | 443 kts | 258° |
| 2026-05-05 09:32 | 20.87878 | -159.10421 | 23487 ft | 444 kts | 258° |
| 2026-05-05 09:32 | 20.87280 | -159.13668 | 23723 ft | 446 kts | 258° |
| 2026-05-05 09:32 | 20.86680 | -159.16923 | 23924 ft | 447 kts | 258° |
| 2026-05-05 09:32 | 20.86078 | -159.20186 | 24146 ft | 448 kts | 258° |
| 2026-05-05 09:33 | 20.85474 | -159.23458 | 24368 ft | 449 kts | 258° |
| 2026-05-05 09:33 | 20.84868 | -159.26735 | 24590 ft | 450 kts | 258° |
| 2026-05-05 09:33 | 20.84467 | -159.28902 | 24724 ft | 450 kts | 258° |
| 2026-05-05 09:33 | 20.83856 | -159.32196 | 24940 ft | 451 kts | 258° |
| 2026-05-05 09:34 | 20.83246 | -159.35489 | 25119 ft | 453 kts | 258° |
| 2026-05-05 09:34 | 20.82631 | -159.38801 | 25315 ft | 454 kts | 258° |
| 2026-05-05 09:34 | 20.82014 | -159.42118 | 25519 ft | 455 kts | 258° |
| 2026-05-05 09:34 | 20.81398 | -159.45429 | 25715 ft | 456 kts | 258° |
| 2026-05-05 09:35 | 20.80779 | -159.48756 | 25907 ft | 457 kts | 258° |
| 2026-05-05 09:35 | 20.79535 | -159.55423 | 26281 ft | 458 kts | 258° |
| 2026-05-05 09:35 | 20.78912 | -159.58760 | 26535 ft | 457 kts | 259° |
| 2026-05-05 09:36 | 20.78276 | -159.62084 | 26847 ft | 455 kts | 257° |
| 2026-05-05 09:36 | 20.77406 | -159.65335 | 27156 ft | 454 kts | 252° |
| 2026-05-05 09:36 | 20.76401 | -159.68522 | 27442 ft | 453 kts | 251° |
| 2026-05-05 09:36 | 20.75357 | -159.71697 | 27707 ft | 452 kts | 251° |
| 2026-05-05 09:37 | 20.74311 | -159.74858 | 27989 ft | 451 kts | 251° |
| 2026-05-05 09:37 | 20.73274 | -159.78018 | 28292 ft | 450 kts | 251° |
| 2026-05-05 09:37 | 20.72250 | -159.81173 | 28608 ft | 449 kts | 252° |
| 2026-05-05 09:37 | 20.71237 | -159.84321 | 28907 ft | 447 kts | 252° |
| 2026-05-05 09:38 | 20.70231 | -159.87466 | 29195 ft | 447 kts | 252° |
| 2026-05-05 09:38 | 20.69230 | -159.90605 | 29502 ft | 446 kts | 252° |
| 2026-05-05 09:38 | 20.68246 | -159.93692 | 29828 ft | 444 kts | 252° |
| 2026-05-05 09:38 | 20.67252 | -159.96808 | 30122 ft | 443 kts | 252° |
| 2026-05-05 09:39 | 20.65241 | -160.03108 | 30102 ft | 445 kts | 252° |
| 2026-05-05 09:39 | 20.63259 | -160.09300 | 30102 ft | 442 kts | 252° |
| 2026-05-05 09:40 | 20.61274 | -160.15494 | 30102 ft | 440 kts | 252° |
| 2026-05-05 09:40 | 20.59292 | -160.21669 | 30106 ft | 439 kts | 252° |
| 2026-05-05 09:41 | 20.57311 | -160.27834 | 30108 ft | 439 kts | 252° |
| 2026-05-05 09:41 | 20.55323 | -160.34012 | 30108 ft | 440 kts | 252° |
| 2026-05-05 09:42 | 20.53331 | -160.40195 | 30107 ft | 441 kts | 252° |
| 2026-05-05 09:42 | 20.51331 | -160.46392 | 30106 ft | 442 kts | 252° |
| 2026-05-05 09:43 | 20.49335 | -160.52572 | 30109 ft | 443 kts | 252° |
| 2026-05-05 09:43 | 20.47320 | -160.58799 | 30104 ft | 444 kts | 252° |
| 2026-05-05 09:44 | 20.45299 | -160.65038 | 30107 ft | 445 kts | 252° |
| 2026-05-05 09:44 | 20.43274 | -160.71280 | 30107 ft | 445 kts | 252° |
| 2026-05-05 09:45 | 20.41247 | -160.77524 | 30104 ft | 445 kts | 252° |
| 2026-05-05 09:45 | 20.39206 | -160.83756 | 30104 ft | 445 kts | 251° |
| 2026-05-05 09:46 | 20.37105 | -160.89977 | 30102 ft | 445 kts | 250° |
| 2026-05-05 09:46 | 20.34770 | -160.96036 | 30109 ft | 444 kts | 248° |
| 2026-05-05 09:47 | 20.32359 | -161.02090 | 30103 ft | 444 kts | 248° |
| 2026-05-05 09:47 | 20.29964 | -161.08150 | 30102 ft | 443 kts | 248° |
| 2026-05-05 09:48 | 20.27590 | -161.14205 | 30102 ft | 443 kts | 249° |
| 2026-05-05 09:48 | 20.25222 | -161.20259 | 30104 ft | 442 kts | 249° |
| 2026-05-05 09:49 | 20.22854 | -161.26308 | 30107 ft | 442 kts | 249° |
| 2026-05-05 09:49 | 20.20485 | -161.32351 | 30105 ft | 442 kts | 248° |
| 2026-05-05 09:50 | 20.18114 | -161.38389 | 30100 ft | 442 kts | 248° |
| 2026-05-05 09:50 | 20.15740 | -161.44431 | 30101 ft | 442 kts | 248° |
| 2026-05-05 09:51 | 20.13363 | -161.50471 | 30102 ft | 442 kts | 248° |
| 2026-05-05 09:51 | 20.10998 | -161.56473 | 30099 ft | 443 kts | 248° |
| 2026-05-05 09:52 | 20.08600 | -161.62553 | 30099 ft | 443 kts | 248° |
| 2026-05-05 09:52 | 20.06225 | -161.68568 | 30100 ft | 443 kts | 248° |
| 2026-05-05 09:53 | 20.03836 | -161.74610 | 30099 ft | 443 kts | 248° |
| 2026-05-05 09:53 | 20.01442 | -161.80657 | 30101 ft | 444 kts | 248° |
| 2026-05-05 09:54 | 19.99043 | -161.86711 | 30102 ft | 444 kts | 248° |
| 2026-05-05 09:54 | 19.96643 | -161.92761 | 30101 ft | 444 kts | 248° |
| 2026-05-05 09:55 | 19.94238 | -161.98817 | 30098 ft | 444 kts | 248° |
| 2026-05-05 09:55 | 19.91834 | -162.04862 | 30100 ft | 444 kts | 248° |
| 2026-05-05 09:56 | 19.89427 | -162.10908 | 30096 ft | 444 kts | 248° |
| 2026-05-05 09:56 | 19.87021 | -162.16945 | 30098 ft | 444 kts | 248° |
| 2026-05-05 09:57 | 19.84625 | -162.22949 | 30097 ft | 444 kts | 248° |
| 2026-05-05 09:57 | 19.82216 | -162.28980 | 30094 ft | 444 kts | 248° |
| 2026-05-05 09:58 | 19.79803 | -162.35013 | 30098 ft | 443 kts | 248° |
| 2026-05-05 09:58 | 19.77389 | -162.41042 | 30096 ft | 443 kts | 248° |
| 2026-05-05 09:59 | 19.74975 | -162.47064 | 30091 ft | 443 kts | 248° |
| 2026-05-05 09:59 | 19.72557 | -162.53091 | 30094 ft | 443 kts | 248° |
| 2026-05-05 10:00 | 19.70137 | -162.59116 | 30093 ft | 443 kts | 248° |
| 2026-05-05 10:00 | 19.67718 | -162.65133 | 30092 ft | 443 kts | 248° |
| 2026-05-05 10:01 | 19.65296 | -162.71158 | 30087 ft | 444 kts | 248° |
| 2026-05-05 10:01 | 19.62930 | -162.77202 | 30092 ft | 444 kts | 249° |
| 2026-05-05 10:02 | 19.60580 | -162.83263 | 30100 ft | 444 kts | 249° |
| 2026-05-05 10:02 | 19.58241 | -162.89281 | 30087 ft | 444 kts | 248° |
| 2026-05-05 10:03 | 19.55876 | -162.95342 | 30091 ft | 445 kts | 248° |
| 2026-05-05 10:03 | 19.53510 | -163.01393 | 30082 ft | 445 kts | 248° |
| 2026-05-05 10:04 | 19.51137 | -163.07454 | 30100 ft | 445 kts | 248° |
| 2026-05-05 10:04 | 19.48764 | -163.13508 | 30095 ft | 445 kts | 248° |
| 2026-05-05 10:05 | 19.46386 | -163.19570 | 30108 ft | 448 kts | 248° |
| 2026-05-05 10:05 | 19.43977 | -163.25704 | 30098 ft | 454 kts | 248° |
| 2026-05-05 10:06 | 19.41529 | -163.31928 | 30098 ft | 460 kts | 248° |
| 2026-05-05 10:06 | 19.39056 | -163.38210 | 30081 ft | 462 kts | 248° |
| 2026-05-05 10:07 | 19.36587 | -163.44472 | 30085 ft | 464 kts | 248° |
| 2026-05-05 10:07 | 19.34089 | -163.50801 | 30097 ft | 464 kts | 248° |
| 2026-05-05 10:08 | 19.31611 | -163.57072 | 30085 ft | 463 kts | 248° |
| 2026-05-05 10:08 | 19.29125 | -163.63355 | 30089 ft | 462 kts | 248° |
| 2026-05-05 10:09 | 19.26640 | -163.69631 | 30077 ft | 462 kts | 248° |
| 2026-05-05 10:09 | 19.24158 | -163.75890 | 30087 ft | 461 kts | 248° |
| 2026-05-05 10:10 | 19.21670 | -163.82157 | 30077 ft | 461 kts | 248° |
| 2026-05-05 10:10 | 19.19182 | -163.88419 | 30083 ft | 461 kts | 248° |
| 2026-05-05 10:11 | 19.16698 | -163.94660 | 30092 ft | 461 kts | 248° |
| 2026-05-05 10:11 | 19.14206 | -164.00916 | 30081 ft | 461 kts | 248° |
| 2026-05-05 10:12 | 19.11734 | -164.07114 | 30089 ft | 461 kts | 248° |
| 2026-05-05 10:12 | 19.09235 | -164.13375 | 30079 ft | 461 kts | 248° |
| 2026-05-05 10:13 | 19.06734 | -164.19630 | 30083 ft | 461 kts | 248° |
| 2026-05-05 10:13 | 19.04235 | -164.25876 | 30073 ft | 461 kts | 248° |
| 2026-05-05 10:14 | 19.01733 | -164.32119 | 30078 ft | 461 kts | 248° |
| 2026-05-05 10:14 | 18.99228 | -164.38366 | 30076 ft | 462 kts | 248° |
| 2026-05-05 10:15 | 18.96719 | -164.44615 | 30077 ft | 462 kts | 248° |
| 2026-05-05 10:15 | 18.94211 | -164.50852 | 30079 ft | 462 kts | 248° |
| 2026-05-05 10:16 | 18.91708 | -164.57072 | 30091 ft | 462 kts | 248° |